CheckWX is a tool to help pilots better visualize weather data.  It is not intended as a substitute for an official pre-flight weather briefing.

02:19:02 UTC

OETR TAF
Turaif Domestic Airport
Saudi Arabia
TAF OETR 152300Z 1600/1706 30006G16KT CAVOK

Jul-16@
00:00 UTC

Jul-16 @ 00:00 UTC

Jul-17@
06:00 UTC

Jul-17 @ 06:00 UTC

TAF OETR 152300Z 1600/1706 30006G16KT CAVOK
Wind
  • 300° at 6 KTS
  • {Gusting to 16 KTS
Conditions
No significant weather
Cloud Levels
  • No significant clouds